createdAt,value
2024-01-20T00:00:53.453Z,8.95
2024-01-20T00:03:23.410Z,8.05
2024-01-20T00:05:50.541Z,8.70
2024-01-20T00:08:18.192Z,8.40
2024-01-20T00:10:45.360Z,7.30
2024-01-20T00:13:12.838Z,8.07
2024-01-20T00:15:43.175Z,7.63
2024-01-20T00:18:11.310Z,7.75
2024-01-20T00:20:39.376Z,7.15
2024-01-20T00:23:06.804Z,7.43
2024-01-20T00:25:34.409Z,7.30
2024-01-20T00:28:02.579Z,7.10
2024-01-20T00:30:30.532Z,6.93
2024-01-20T00:32:57.882Z,7.05
2024-01-20T00:35:25.158Z,8.25
2024-01-20T00:37:52.086Z,7.75
2024-01-20T00:40:21.685Z,7.57
2024-01-20T00:42:48.663Z,6.88
2024-01-20T00:45:15.587Z,6.80
2024-01-20T00:47:42.592Z,7.35
2024-01-20T00:50:10.665Z,7.13
2024-01-20T00:52:37.913Z,8.18
2024-01-20T00:55:05.751Z,7.68
2024-01-20T00:57:33.025Z,7.68
2024-01-20T01:00:09.019Z,7.93
2024-01-20T01:02:40.188Z,9.23
2024-01-20T01:05:08.397Z,8.95
2024-01-20T01:07:36.805Z,8.20
2024-01-20T01:10:05.013Z,8.95
2024-01-20T01:12:31.847Z,10.13
2024-01-20T01:14:58.852Z,11.25
2024-01-20T01:17:26.104Z,9.73
2024-01-20T01:19:54.423Z,9.93
2024-01-20T01:22:23.920Z,8.48
2024-01-20T01:24:51.277Z,8.73
2024-01-20T01:27:18.207Z,9.82
2024-01-20T01:29:45.182Z,8.80
2024-01-20T01:32:12.127Z,9.90
2024-01-20T01:34:42.647Z,9.65
2024-01-20T01:37:10.691Z,9.90
2024-01-20T01:39:39.646Z,9.00
2024-01-20T01:42:07.624Z,9.00
2024-01-20T01:44:34.461Z,9.40
2024-01-20T01:47:02.755Z,9.35
2024-01-20T01:49:29.985Z,9.75
2024-01-20T01:51:56.819Z,10.65
2024-01-20T01:54:25.936Z,9.88
2024-01-20T01:56:54.494Z,10.25
2024-01-20T01:59:22.370Z,10.40
2024-01-20T02:01:49.202Z,10.80
2024-01-20T02:04:16.338Z,10.98
2024-01-20T02:06:43.879Z,10.77
2024-01-20T02:09:11.590Z,10.80
2024-01-20T02:11:40.451Z,10.45
2024-01-20T02:14:07.736Z,10.85
2024-01-20T02:16:35.124Z,10.23
2024-01-20T02:19:08.620Z,10.30
2024-01-20T02:21:37.746Z,10.18
2024-01-20T02:24:08.867Z,10.23
2024-01-20T02:26:39.090Z,10.60
2024-01-20T02:29:06.214Z,11.05
2024-01-20T02:31:33.333Z,10.60
2024-01-20T02:34:01.709Z,10.98
2024-01-20T02:36:28.695Z,10.70
2024-01-20T02:38:55.737Z,10.55
2024-01-20T02:41:22.595Z,10.18
2024-01-20T02:43:49.564Z,10.90
2024-01-20T02:46:16.477Z,9.95
2024-01-20T02:48:43.447Z,10.63
2024-01-20T02:51:10.479Z,9.77
2024-01-20T02:53:38.455Z,9.30
2024-01-20T02:56:05.638Z,9.60
2024-01-20T02:58:33.816Z,10.48
2024-01-20T03:01:02.178Z,9.90
2024-01-20T03:03:29.505Z,9.50
2024-01-20T03:05:56.807Z,9.75
2024-01-20T03:08:23.738Z,9.73
2024-01-20T03:10:50.951Z,9.75
2024-01-20T03:13:20.237Z,10.30
2024-01-20T03:15:47.099Z,10.43
2024-01-20T03:18:16.287Z,9.45
2024-01-20T03:20:43.549Z,9.43
2024-01-20T03:23:10.534Z,9.27
2024-01-20T03:25:37.494Z,9.25
2024-01-20T03:28:04.650Z,8.52
2024-01-20T03:30:34.059Z,8.40
2024-01-20T03:33:02.586Z,8.43
2024-01-20T03:35:29.878Z,7.88
2024-01-20T03:37:56.782Z,8.10
2024-01-20T03:40:23.751Z,7.10
2024-01-20T03:42:50.564Z,6.95
2024-01-20T03:45:17.674Z,7.80
2024-01-20T03:47:45.609Z,7.90
2024-01-20T03:50:17.079Z,7.53
2024-01-20T03:52:44.592Z,6.88
2024-01-20T03:55:13.584Z,7.45
2024-01-20T03:57:42.636Z,7.20
2024-01-20T04:00:11.506Z,7.28
2024-01-20T04:02:39.101Z,7.07
2024-01-20T04:05:07.013Z,6.57
2024-01-20T04:07:35.046Z,7.18
2024-01-20T04:10:02.348Z,7.00
2024-01-20T04:12:29.502Z,6.82
2024-01-20T04:14:57.201Z,6.50
2024-01-20T04:17:25.412Z,6.70
2024-01-20T04:19:52.770Z,6.72
2024-01-20T04:22:23.194Z,7.32
2024-01-20T04:24:50.212Z,7.03
2024-01-20T04:27:18.349Z,6.72
2024-01-20T04:29:45.125Z,7.30
2024-01-20T04:32:12.057Z,6.95
2024-01-20T04:34:39.745Z,7.53
2024-01-20T04:37:07.734Z,8.25
2024-01-20T04:39:38.676Z,7.72
2024-01-20T04:42:06.707Z,7.50
2024-01-20T04:44:33.972Z,7.93
2024-01-20T04:47:01.883Z,7.40
2024-01-20T04:49:31.081Z,7.25
2024-01-20T04:52:02.810Z,6.95
2024-01-20T04:54:32.091Z,8.38
2024-01-20T04:56:59.817Z,7.22
2024-01-20T04:59:26.974Z,7.10
2024-01-20T05:01:54.384Z,7.30
2024-01-20T05:04:24.366Z,7.93
2024-01-20T05:06:53.413Z,7.38
2024-01-20T05:09:20.879Z,7.20
2024-01-20T05:11:52.900Z,6.85
2024-01-20T05:14:19.810Z,6.65
2024-01-20T05:16:48.617Z,6.60
2024-01-20T05:19:17.062Z,6.97
2024-01-20T05:21:45.407Z,7.13
2024-01-20T05:24:15.329Z,6.43
2024-01-20T05:26:42.294Z,6.68
2024-01-20T05:29:09.175Z,6.50
2024-01-20T05:31:39.174Z,6.50
2024-01-20T05:34:06.331Z,6.72
2024-01-20T05:36:33.974Z,6.00
2024-01-20T05:39:02.322Z,7.30
2024-01-20T05:41:30.164Z,6.55
2024-01-20T05:43:57.255Z,6.00
2024-01-20T05:46:24.534Z,6.35
2024-01-20T05:48:51.586Z,6.63
2024-01-20T05:51:19.081Z,6.43
2024-01-20T05:53:46.974Z,6.55
2024-01-20T05:56:16.661Z,6.60
2024-01-20T05:58:44.867Z,6.57
2024-01-20T06:01:11.911Z,6.00
2024-01-20T06:03:39.098Z,7.72
2024-01-20T06:06:12.280Z,6.40
2024-01-20T06:08:39.568Z,6.97
2024-01-20T06:11:06.460Z,7.00
2024-01-20T06:13:33.510Z,6.50
2024-01-20T06:16:00.864Z,7.05
2024-01-20T06:18:29.963Z,7.15
2024-01-20T06:20:57.931Z,6.70
2024-01-20T06:23:25.200Z,7.15
2024-01-20T06:25:54.168Z,6.72
2024-01-20T06:28:22.721Z,7.18
2024-01-20T06:30:51.113Z,7.90
2024-01-20T06:33:18.406Z,7.40
2024-01-20T06:35:45.705Z,7.45
2024-01-20T06:38:13.747Z,7.05
2024-01-20T06:40:43.263Z,7.40
2024-01-20T06:43:10.712Z,7.63
2024-01-20T06:45:40.927Z,8.52
2024-01-20T06:48:11.453Z,8.45
2024-01-20T06:50:44.307Z,7.68
2024-01-20T06:53:14.141Z,7.85
2024-01-20T06:55:41.394Z,8.45
2024-01-20T06:58:08.769Z,8.10
2024-01-20T07:00:35.734Z,8.23
2024-01-20T07:03:04.173Z,7.70
2024-01-20T07:05:34.090Z,8.00
2024-01-20T07:08:05.788Z,8.45
2024-01-20T07:10:32.675Z,8.85
2024-01-20T07:12:59.929Z,8.23
2024-01-20T07:15:28.160Z,7.47
2024-01-20T07:17:58.752Z,8.07
2024-01-20T07:20:27.418Z,8.88
2024-01-20T07:22:54.710Z,9.23
2024-01-20T07:25:22.023Z,9.02
2024-01-20T07:27:49.306Z,9.15
2024-01-20T07:30:16.813Z,8.90
2024-01-20T07:32:44.303Z,9.23
2024-01-20T07:35:11.670Z,8.27
2024-01-20T07:37:42.891Z,8.38
2024-01-20T07:40:10.844Z,7.78
2024-01-20T07:42:41.474Z,8.50
2024-01-20T07:45:09.030Z,9.43
2024-01-20T07:47:36.099Z,8.90
2024-01-20T07:50:03.666Z,8.68
2024-01-20T07:52:30.465Z,8.57
2024-01-20T07:54:57.580Z,8.70
2024-01-20T07:57:24.424Z,10.02
2024-01-20T07:59:52.466Z,9.63
2024-01-20T08:02:19.666Z,8.95
2024-01-20T08:04:48.957Z,8.43
2024-01-20T08:07:16.424Z,8.40
2024-01-20T08:09:43.802Z,7.97
2024-01-20T08:12:10.725Z,8.77
2024-01-20T08:14:37.600Z,9.05
2024-01-20T08:17:04.862Z,9.48
2024-01-20T08:19:32.210Z,8.93
2024-01-20T08:22:00.565Z,8.15
2024-01-20T08:24:27.514Z,8.43
2024-01-20T08:26:54.530Z,8.68
2024-01-20T08:29:23.604Z,9.82
2024-01-20T08:31:51.020Z,8.20
2024-01-20T08:34:17.921Z,7.90
2024-01-20T08:36:45.374Z,7.35
2024-01-20T08:39:12.400Z,7.13
2024-01-20T08:41:39.729Z,7.43
2024-01-20T08:44:06.601Z,6.28
2024-01-20T08:46:34.610Z,6.88
2024-01-20T08:49:01.497Z,6.93
2024-01-20T08:51:30.650Z,5.97
2024-01-20T08:53:57.606Z,6.50
2024-01-20T08:56:26.012Z,7.15
2024-01-20T08:58:53.988Z,7.45
2024-01-20T09:01:23.920Z,8.00
2024-01-20T09:03:51.004Z,7.30
2024-01-20T09:06:18.426Z,7.22
2024-01-20T09:08:45.834Z,6.63
2024-01-20T09:11:13.234Z,6.03
2024-01-20T09:13:41.283Z,6.63
2024-01-20T09:16:08.208Z,5.72
2024-01-20T09:18:35.393Z,5.88
2024-01-20T09:21:02.572Z,5.65
2024-01-20T09:23:29.741Z,5.72
2024-01-20T09:25:56.913Z,5.57
2024-01-20T09:28:23.853Z,7.72
2024-01-20T09:30:51.853Z,10.68
2024-01-20T09:33:19.107Z,9.23
2024-01-20T09:35:46.275Z,20.38
2024-01-20T09:38:13.236Z,8.13
2024-01-20T09:40:40.281Z,10.05
2024-01-20T09:43:11.610Z,8.38
2024-01-20T09:45:41.474Z,6.10
2024-01-20T09:48:09.216Z,5.72
2024-01-20T09:50:36.753Z,5.32
2024-01-20T09:53:13.616Z,7.00
2024-01-20T09:55:42.962Z,6.13
2024-01-20T09:58:15.464Z,5.50
2024-01-20T10:00:43.621Z,6.23
2024-01-20T10:03:12.463Z,6.35
2024-01-20T10:05:39.971Z,6.80
2024-01-20T10:08:08.410Z,5.88
2024-01-20T10:10:41.996Z,5.45
2024-01-20T10:13:08.989Z,5.78
2024-01-20T10:15:37.057Z,5.80
2024-01-20T10:18:12.653Z,5.43
2024-01-20T10:20:40.964Z,6.88
2024-01-20T10:23:09.033Z,5.72
2024-01-20T10:25:39.512Z,5.07
2024-01-20T10:28:08.936Z,6.10
2024-01-20T10:30:39.008Z,4.88
2024-01-20T10:33:10.083Z,5.00
2024-01-20T10:35:39.963Z,4.97
2024-01-20T10:55:11.092Z,5.30
2024-01-20T10:57:38.520Z,6.53
2024-01-20T11:00:10.289Z,5.00
2024-01-20T11:02:38.271Z,5.32
2024-01-20T11:05:22.919Z,5.78
2024-01-20T11:08:24.148Z,7.22
2024-01-20T11:10:54.503Z,6.30
2024-01-20T11:13:26.267Z,5.95
2024-01-20T11:15:56.912Z,5.28
2024-01-20T11:18:28.668Z,5.32
2024-01-20T11:21:03.595Z,4.55
2024-01-20T11:23:32.790Z,5.38
2024-01-20T11:26:10.764Z,5.15
2024-01-20T11:28:38.160Z,6.07
2024-01-20T11:31:05.453Z,5.18
2024-01-20T11:33:33.038Z,5.03
2024-01-20T11:36:01.745Z,4.65
2024-01-20T11:38:30.129Z,4.95
2024-01-20T11:41:02.358Z,5.50
2024-01-20T11:43:30.925Z,5.47
2024-01-20T11:45:58.550Z,5.45
2024-01-20T11:48:27.169Z,5.50
2024-01-20T11:50:55.385Z,4.68
2024-01-20T11:53:23.733Z,5.20
2024-01-20T11:55:56.782Z,4.15
2024-01-20T11:58:24.182Z,5.78
2024-01-20T12:00:55.644Z,6.85
2024-01-20T12:03:23.310Z,6.20
2024-01-20T12:05:53.086Z,5.85
2024-01-20T12:08:21.911Z,4.93
2024-01-20T12:10:50.063Z,5.05
2024-01-20T12:13:17.952Z,5.78
2024-01-20T12:15:47.865Z,5.07
2024-01-20T12:18:18.079Z,5.05
2024-01-20T12:20:45.851Z,4.93
2024-01-20T12:23:19.297Z,4.63
2024-01-20T12:28:14.290Z,4.90
2024-01-20T12:30:41.328Z,5.55
2024-01-20T12:33:08.307Z,4.43
2024-01-20T12:35:39.807Z,4.78
2024-01-20T12:38:06.716Z,5.18
2024-01-20T12:40:33.721Z,4.53
2024-01-20T12:43:02.658Z,4.60
2024-01-20T12:45:29.731Z,4.70
2024-01-20T12:47:57.481Z,4.90
2024-01-20T12:50:25.490Z,4.13
2024-01-20T12:52:52.714Z,5.38
2024-01-20T12:55:20.162Z,4.60
2024-01-20T12:57:48.054Z,4.68
2024-01-20T13:00:15.876Z,4.75
2024-01-20T13:02:43.903Z,4.50
2024-01-20T13:05:13.927Z,5.35
2024-01-20T13:07:40.860Z,5.57
2024-01-20T13:10:08.657Z,5.60
2024-01-20T13:12:36.194Z,6.43
2024-01-20T13:15:03.353Z,5.65
2024-01-20T13:17:30.655Z,6.20
2024-01-20T13:19:57.609Z,7.40
2024-01-20T13:22:24.545Z,5.47
2024-01-20T13:24:51.492Z,4.38
2024-01-20T13:27:18.554Z,5.35
2024-01-20T13:29:45.889Z,5.22
2024-01-20T13:32:13.502Z,5.75
2024-01-20T13:34:40.964Z,5.03
2024-01-20T13:37:08.373Z,6.15
2024-01-20T13:39:36.325Z,5.43
2024-01-20T13:42:03.268Z,5.72
2024-01-20T13:44:30.698Z,5.57
2024-01-20T13:46:57.477Z,5.38
2024-01-20T13:49:25.799Z,8.63
2024-01-20T13:51:53.094Z,6.70
2024-01-20T13:54:22.070Z,10.52
2024-01-20T13:56:50.651Z,7.68
2024-01-20T13:59:18.519Z,4.53
2024-01-20T14:01:45.560Z,7.68
2024-01-20T14:04:12.573Z,7.32
2024-01-20T14:06:40.091Z,7.13
2024-01-20T14:09:11.428Z,5.03
2024-01-20T14:11:38.841Z,5.68
2024-01-20T14:14:07.298Z,6.60
2024-01-20T14:16:35.334Z,8.98
2024-01-20T14:19:08.721Z,7.43
2024-01-20T14:21:36.618Z,6.32
2024-01-20T14:24:06.157Z,7.20
2024-01-20T14:26:33.497Z,6.43
2024-01-20T14:29:01.806Z,5.88
2024-01-20T14:31:29.832Z,5.78
2024-01-20T14:33:58.236Z,7.10
2024-01-20T14:36:28.728Z,5.30
2024-01-20T14:38:55.808Z,6.18
2024-01-20T14:41:22.706Z,5.88
2024-01-20T14:43:55.493Z,7.53
2024-01-20T14:46:22.963Z,5.80
2024-01-20T14:48:51.395Z,5.88
2024-01-20T14:51:18.864Z,7.50
2024-01-20T14:53:46.226Z,5.93
2024-01-20T14:56:14.122Z,6.70
2024-01-20T14:58:41.038Z,6.43
2024-01-20T15:01:08.122Z,6.32
2024-01-20T15:03:35.617Z,7.28
2024-01-20T15:06:04.042Z,6.97
2024-01-20T15:08:31.024Z,6.93
2024-01-20T15:10:57.892Z,7.95
2024-01-20T15:13:24.709Z,8.10
2024-01-20T15:15:54.202Z,7.85
2024-01-20T15:18:23.616Z,9.50
2024-01-20T15:20:51.807Z,9.15
2024-01-20T15:23:18.968Z,8.15
2024-01-20T15:25:46.386Z,9.00
2024-01-20T15:28:14.929Z,9.48
2024-01-20T15:30:42.252Z,9.23
2024-01-20T15:33:10.954Z,11.75
2024-01-20T15:35:38.408Z,7.95
2024-01-20T15:38:05.836Z,8.43
2024-01-20T15:40:33.160Z,8.27
2024-01-20T15:42:59.954Z,8.10
2024-01-20T15:45:27.967Z,8.15
2024-01-20T15:47:57.105Z,7.45
2024-01-20T15:50:24.373Z,8.43
2024-01-20T15:52:51.216Z,8.70
2024-01-20T15:55:21.978Z,7.82
2024-01-20T15:57:48.962Z,10.00
2024-01-20T16:00:18.000Z,8.57
2024-01-20T16:02:45.496Z,8.63
2024-01-20T16:05:12.457Z,7.88
2024-01-20T16:07:39.452Z,8.43
2024-01-20T16:10:07.243Z,8.13
2024-01-20T16:12:34.260Z,8.25
2024-01-20T16:15:01.216Z,8.98
2024-01-20T16:17:28.464Z,9.65
2024-01-20T16:19:55.884Z,9.90
2024-01-20T16:22:22.703Z,10.52
2024-01-20T16:24:51.458Z,10.85
2024-01-20T16:27:18.705Z,11.60
2024-01-20T16:29:46.767Z,10.13
2024-01-20T16:32:16.180Z,9.32
2024-01-20T16:34:44.389Z,9.68
2024-01-20T16:37:12.304Z,9.27
2024-01-20T16:39:39.780Z,9.65
2024-01-20T16:42:08.170Z,9.75
2024-01-20T16:44:35.031Z,9.90
2024-01-20T16:47:04.063Z,9.00
2024-01-20T16:49:31.037Z,9.95
2024-01-20T16:51:59.410Z,14.43
2024-01-20T16:54:27.415Z,11.93
2024-01-20T16:56:54.321Z,11.27
2024-01-20T16:59:21.283Z,10.63
2024-01-20T17:01:48.204Z,9.73
2024-01-20T17:04:16.294Z,10.00
2024-01-20T17:06:44.306Z,9.77
2024-01-20T17:09:16.079Z,9.30
2024-01-20T17:11:48.908Z,10.07
2024-01-20T17:14:19.799Z,10.20
2024-01-20T17:16:50.024Z,9.85
2024-01-20T17:19:17.503Z,10.68
2024-01-20T17:21:44.908Z,9.98
2024-01-20T17:24:12.362Z,10.65
2024-01-20T17:26:40.067Z,10.10
2024-01-20T17:29:08.236Z,9.57
2024-01-20T17:31:38.355Z,10.18
2024-01-20T17:34:05.204Z,9.90
2024-01-20T17:36:33.315Z,11.55
2024-01-20T17:39:01.725Z,10.63
2024-01-20T17:41:29.040Z,12.10
2024-01-20T17:43:56.056Z,9.38
2024-01-20T17:46:24.000Z,11.43
2024-01-20T17:48:54.938Z,9.98
2024-01-20T17:51:21.918Z,10.68
2024-01-20T17:53:50.000Z,10.77
2024-01-20T17:56:19.405Z,10.40
2024-01-20T17:58:47.378Z,11.32
2024-01-20T18:01:14.333Z,11.73
2024-01-20T18:03:41.310Z,11.52
2024-01-20T18:06:09.573Z,10.82
2024-01-20T18:08:37.169Z,11.25
2024-01-20T18:11:05.278Z,10.85
2024-01-20T18:13:32.135Z,10.63
2024-01-20T18:15:59.724Z,14.18
2024-01-20T18:18:26.697Z,24.05
2024-01-20T18:20:53.904Z,16.45
2024-01-20T18:23:26.042Z,13.60
2024-01-20T18:25:52.927Z,11.20
2024-01-20T18:28:19.981Z,11.38
2024-01-20T18:30:48.086Z,12.88
2024-01-20T18:33:15.530Z,11.10
2024-01-20T18:35:42.719Z,11.50
2024-01-20T18:38:12.858Z,11.10
2024-01-20T18:40:39.962Z,10.55
2024-01-20T18:43:07.238Z,9.60
2024-01-20T18:45:34.159Z,11.13
2024-01-20T18:48:06.310Z,10.85
2024-01-20T18:50:35.943Z,9.65
2024-01-20T18:53:02.834Z,10.27
2024-01-20T18:55:31.830Z,10.68
2024-01-20T18:57:58.765Z,9.35
2024-01-20T19:00:28.461Z,9.30
2024-01-20T19:02:55.776Z,9.70
2024-01-20T19:05:23.309Z,10.23
2024-01-20T19:07:50.784Z,11.20
2024-01-20T19:10:19.187Z,11.50
2024-01-20T19:12:47.666Z,11.00
2024-01-20T19:15:15.326Z,9.52
2024-01-20T19:17:48.999Z,10.57
2024-01-20T19:20:16.360Z,11.07
2024-01-20T19:22:43.704Z,10.55
2024-01-20T19:25:13.011Z,10.85
2024-01-20T19:27:42.296Z,11.23
2024-01-20T19:30:12.814Z,9.15
2024-01-20T19:32:41.344Z,9.90
2024-01-20T19:35:08.665Z,9.45
2024-01-20T19:37:35.380Z,10.07
2024-01-20T19:40:03.813Z,9.55
2024-01-20T19:42:31.034Z,10.52
2024-01-20T19:44:58.579Z,9.70
2024-01-20T19:47:27.044Z,13.20
2024-01-20T19:49:54.939Z,10.98
2024-01-20T19:52:21.994Z,13.15
2024-01-20T19:54:49.170Z,11.60
2024-01-20T19:57:17.004Z,11.18
2024-01-20T19:59:44.077Z,10.40
2024-01-20T20:02:11.103Z,10.60
2024-01-20T20:04:40.527Z,11.30
2024-01-20T20:07:10.293Z,12.20
2024-01-20T20:09:38.994Z,10.45
2024-01-20T20:12:09.270Z,10.60
2024-01-20T20:14:37.575Z,10.60
2024-01-20T20:17:07.583Z,10.57
2024-01-20T20:19:37.669Z,10.65
2024-01-20T20:22:05.042Z,10.73
2024-01-20T20:24:33.081Z,11.07
2024-01-20T20:27:02.067Z,10.18
2024-01-20T20:29:29.078Z,10.35
2024-01-20T20:31:57.032Z,10.85
2024-01-20T20:34:25.157Z,11.27
2024-01-20T20:36:57.876Z,10.23
2024-01-20T20:39:25.378Z,10.65
2024-01-20T20:41:55.487Z,14.13
2024-01-20T20:44:24.548Z,13.48
2024-01-20T20:46:52.835Z,13.63
2024-01-20T20:49:20.057Z,13.55
2024-01-20T20:51:47.606Z,12.25
2024-01-20T20:54:14.897Z,11.98
2024-01-20T20:56:41.820Z,12.15
2024-01-20T20:59:08.767Z,12.57
2024-01-20T21:01:35.777Z,10.85
2024-01-20T21:04:07.757Z,10.70
2024-01-20T21:06:34.935Z,11.57
2024-01-20T21:09:01.846Z,11.65
2024-01-20T21:11:28.796Z,12.48
2024-01-20T21:13:56.677Z,14.48
2024-01-20T21:16:25.310Z,13.93
2024-01-20T21:18:56.063Z,16.23
2024-01-20T21:21:24.933Z,13.80
2024-01-20T21:23:54.416Z,12.73
2024-01-20T21:26:24.369Z,12.93
2024-01-20T21:28:51.802Z,12.27
2024-01-20T21:31:18.994Z,12.68
2024-01-20T21:33:47.468Z,13.70
2024-01-20T21:36:15.712Z,15.13
2024-01-20T21:38:43.758Z,15.75
2024-01-20T21:41:13.958Z,12.90
2024-01-20T21:43:41.254Z,11.50
2024-01-20T21:46:11.215Z,11.93
2024-01-20T21:48:40.236Z,11.68
2024-01-20T21:51:07.111Z,11.75
2024-01-20T21:53:34.078Z,12.35
2024-01-20T21:56:00.959Z,10.13
2024-01-20T21:58:27.999Z,10.85
2024-01-20T22:00:55.307Z,10.55
2024-01-20T22:03:24.090Z,10.90
2024-01-20T22:05:51.623Z,11.10
2024-01-20T22:08:19.523Z,11.63
2024-01-20T22:10:46.498Z,10.82
2024-01-20T22:13:13.383Z,10.43
2024-01-20T22:15:41.621Z,11.35
2024-01-20T22:18:08.893Z,10.60
2024-01-20T22:20:35.929Z,11.05
2024-01-20T22:23:04.012Z,11.18
2024-01-20T22:25:31.253Z,11.20
2024-01-20T22:28:00.290Z,10.80
2024-01-20T22:30:27.299Z,10.85
2024-01-20T22:32:54.161Z,11.85
2024-01-20T22:35:21.205Z,11.05
2024-01-20T22:37:51.437Z,11.75
2024-01-20T22:40:18.612Z,11.52
2024-01-20T22:42:47.624Z,10.93
2024-01-20T22:45:14.578Z,10.95
2024-01-20T22:47:45.192Z,11.80
2024-01-20T22:50:14.782Z,10.93
2024-01-20T22:52:41.904Z,11.18
2024-01-20T22:55:09.215Z,12.07
2024-01-20T22:57:38.872Z,11.48
2024-01-20T23:00:14.204Z,11.32
2024-01-20T23:02:43.345Z,10.65
2024-01-20T23:05:10.706Z,11.32
2024-01-20T23:07:39.362Z,10.45
2024-01-20T23:10:09.280Z,10.82
2024-01-20T23:12:37.768Z,11.02
2024-01-20T23:15:06.358Z,10.95
2024-01-20T23:17:33.819Z,10.57
2024-01-20T23:20:02.451Z,11.07
2024-01-20T23:22:32.600Z,10.60
2024-01-20T23:24:59.885Z,11.43
2024-01-20T23:27:26.870Z,10.57
2024-01-20T23:29:53.722Z,11.48
2024-01-20T23:32:21.813Z,11.43
2024-01-20T23:34:49.766Z,11.23
2024-01-20T23:37:17.726Z,11.15
2024-01-20T23:39:44.757Z,10.65
2024-01-20T23:42:12.068Z,10.65
2024-01-20T23:44:43.306Z,10.50
2024-01-20T23:47:10.572Z,10.85
2024-01-20T23:49:37.816Z,11.07
2024-01-20T23:52:11.123Z,11.00
2024-01-20T23:57:07.156Z,10.32
2024-01-20T23:59:34.490Z,11.55
